Terminal Aerodrome Forecast
Issued by NWS Wilmington, OH

Home | Current Version | Previous Version | Text Only | Print | Product List | Glossary On
Versions: 1 2 3 4 5 6 7 8 9 10 11 12 13 14 15 16 17 18 19 20 21 22 23 24 25
936
FTUS41 KILN 021120
TAFDAY
TAF
KDAY 021120Z 0212/0312 01006KT 2SM BR OVC015
      TEMPO 0212/0213 3/4SM BR OVC003
     FM021700 34006KT P6SM SCT015 BKN100
     FM022300 03006KT P6SM OVC040
     FM030500 04004KT 5SM BR SCT020 BKN090=

USA.gov is the U.S. government's official web portal to all federal, state and local government web resources and services.